Saint Pete Beach, FL

5:17 AM EDT on May 29, 2015 (GMT -0400)
Belle Vista | | Change Station
CLOSE
Current Station
Personal Weather Station
Location: Saint Pete Beach, FL
Elevation: 0 ft
Nearby Weather Stations

Elev 0 ft 27.71 °N, 82.73 °W | Updated 14 seconds ago

Clear
Clear
74.1 °F
Feels Like 75 °F
N
0.0
Wind Variable Wind from SSE
Gusts 0.0 mph

Today
High -- | Low -- °F
--% Chance of Precip.
Yesterday
High -- | Low -- °F
Precip. -- in
6:36 AM 8:20 PM
Waxing Gibbous, 82% visible
Pressure 30.05 in
Visibility 10.0 miles
Clouds Clear
Heat Index 75 °F
Dew Point 67 °F
Humidity 79%
Rainfall 0.00 in
Snow Depth Not available.
UV 0.0 out of 12
Pollen 5.40 out of 12
Air Quality Not available.
Flu Activity Sporadic
METAR KSPG 290853Z AUTO 11011KT 10SM CLR 24/18 A3005 RMK AO2 SLP176 T02390183 56014

More Conditions Fewer Conditions

Pressure 30.05 in
Visibility 10.0 miles
Clouds Clear
Heat Index 75 °F
Dew Point 67 °F
Humidity 79%
Rainfall 0.00 in
Snow Depth Not available.
UV 0.0 out of 12
Pollen 5.40 out of 12
Air Quality Not available.
Flu Activity Sporadic
METAR KSPG 290853Z AUTO 11011KT 10SM CLR 24/18 A3005 RMK AO2 SLP176 T02390183 56014

More Conditions Fewer Conditions

10-Day Weather Forecast

Almanac

Astronomy

May. 29, 2015 Rise Set
Actual Time
Civil Twilight
Nautical Twilight
Astronomical Twilight
Moon
Length of Visible Light
Length of Day
Tomorrow will be .
, % of the Moon is Illuminated

Today's Extremes

State Highs State Lows

Community

WunderPhotos

Upload Photos

1,825,221 photos uploaded!

WunderBlogs® & News

Nearby

Air Quality

  Air Quality AQ Index Pollutant
Not available.

Snow Depth

Station Depth Elevation

Earthquake Activity

City Distance Mag. Time & Date
Minimum magnitude displayed is 2.5.

Coastal Water Temperatures

Place Temperature

Stations

Nearby Weather Stations

Station Location Temp. Windchill Dew Point Humidity Wind Precip. Elev Updated Type